»·PEaware :: N33SB KSMX-KBFL

N33SB :: KSMX-KBFL

FLIGHT INFORMATION

Flight Status: Arrived
Operator: Privately registered:
United States
More flights under this callsign
Pilot: Marc Slager (15679)
Aircraft: PIPER PA-28R-201 ARROW
(P28R)
More flights by this aircraft type
Origin: KSMX Santa Maria Pub/Capt Hancock
United States
Destination: KBFL Meadows
United States
More flights between these airports :: More routes between these airports
Route: +
File this flight plan on PilotEdge
Remarks: CAT5
Altitude:
(Current/Filed)
0ft
Speed:
(Current/Filed)
0kts
Departed: 16-Jun-17 06:57 PM
Arrived: 16-Jun-17 07:46 PM
Distance/Time
Traveled:
76nm/0:49
Distance/Time
To Go:
Arrived

Flight Plot

Page will automatically refresh every two minutes.


Map Options




Map Legend


Flown Route
Filed Route
Departure Airport
Arrival Airport
Navaid (VOR, NDB)
Fix

Horizontal Profiles

Position Reports

Time Latitude Longitude Heading Altitude Ground
Speed
16-Jun-17 18:54 34.901367 -120.452273 70 263ft 0kts
16-Jun-17 18:55 34.900470 -120.452438 136 263ft 16kts
16-Jun-17 18:56 34.895954 -120.447077 134 263ft 34kts
16-Jun-17 18:57 34.893228 -120.444952 189 263ft 0kts
16-Jun-17 18:58 34.892845 -120.445849 314 263ft 13kts
16-Jun-17 18:59 34.909632 -120.465966 313 1218ft 95kts
16-Jun-17 19:00 34.927249 -120.466574 61 2644ft 88kts
16-Jun-17 19:01 34.938976 -120.436904 63 3899ft 98kts
16-Jun-17 19:02 34.950138 -120.408261 63 5111ft 97kts
16-Jun-17 19:03 34.963431 -120.373336 64 5512ft 139kts
16-Jun-17 19:04 34.980079 -120.329363 65 5521ft 149kts
16-Jun-17 19:05 34.997629 -120.283012 65 5658ft 144kts
16-Jun-17 19:06 35.012892 -120.242705 65 6321ft 126kts
16-Jun-17 19:07 35.027310 -120.204585 65 6913ft 122kts
16-Jun-17 19:08 35.041451 -120.167188 65 7511ft 120kts
16-Jun-17 19:09 35.057309 -120.125279 65 7510ft 145kts
16-Jun-17 19:10 35.074183 -120.080723 65 7506ft 149kts
16-Jun-17 19:11 35.091902 -120.033944 65 7508ft 149kts
16-Jun-17 19:12 35.108495 -119.990127 65 7509ft 151kts
16-Jun-17 19:13 35.124378 -119.948175 65 7510ft 153kts
16-Jun-17 19:14 35.142287 -119.900880 65 7530ft 155kts
16-Jun-17 19:15 35.160362 -119.853156 65 7508ft 154kts
16-Jun-17 19:16 35.178330 -119.805710 65 7508ft 153kts
16-Jun-17 19:17 35.195491 -119.760434 65 7509ft 147kts
16-Jun-17 19:18 35.212593 -119.715278 64 7508ft 152kts
16-Jun-17 19:19 35.230328 -119.668467 64 7508ft 153kts
16-Jun-17 19:20 35.248274 -119.621100 64 7508ft 152kts
16-Jun-17 19:21 35.266084 -119.574094 64 7508ft 152kts
16-Jun-17 19:22 35.283909 -119.527056 64 7425ft 158kts
16-Jun-17 19:23 35.301453 -119.480870 64 6538ft 147kts
16-Jun-17 19:24 35.317845 -119.435399 66 5649ft 145kts
16-Jun-17 19:25 35.332921 -119.390751 68 5527ft 146kts
16-Jun-17 19:26 35.347528 -119.343917 69 4741ft 146kts
16-Jun-17 19:27 35.361974 -119.297770 69 3815ft 142kts
16-Jun-17 19:28 35.374655 -119.257510 69 2813ft 122kts
16-Jun-17 19:29 35.386560 -119.219710 69 1810ft 117kts
16-Jun-17 19:30 35.397004 -119.186419 69 1530ft 94kts
16-Jun-17 19:31 35.406054 -119.157486 69 1530ft 93kts
16-Jun-17 19:32 35.415264 -119.127960 69 1548ft 96kts
16-Jun-17 19:33 35.433849 -119.129721 262 1308ft 102kts
16-Jun-17 19:34 35.419291 -119.156579 234 1591ft 111kts
16-Jun-17 19:35 35.399979 -119.189109 233 1594ft 114kts
16-Jun-17 19:36 35.381083 -119.220851 233 1582ft 114kts
16-Jun-17 19:37 35.358545 -119.230788 139 1579ft 111kts
16-Jun-17 19:38 35.353389 -119.200144 45 1614ft 116kts
16-Jun-17 19:39 35.375029 -119.172538 52 1575ft 99kts
16-Jun-17 19:40 35.390432 -119.145875 60 1595ft 100kts
16-Jun-17 19:41 35.405206 -119.114583 60 1578ft 104kts
16-Jun-17 19:42 35.415147 -119.086399 119 1538ft 92kts
16-Jun-17 19:43 35.396647 -119.065480 147 1714ft 89kts
16-Jun-17 19:44 35.383413 -119.042671 72 1406ft 89kts
16-Jun-17 19:45 35.400721 -119.023349 30 1085ft 76kts
16-Jun-17 19:46 35.417819 -119.037035 316 737ft 77kts
16-Jun-17 19:47 35.432053 -119.054050 315 516ft 66kts
16-Jun-17 19:48 35.436296 -119.057733 70 491ft 0kts
16-Jun-17 19:49 35.435772 -119.055466 44 493ft 10kts
16-Jun-17 19:50 35.436716 -119.054806 29 498ft 0kts
16-Jun-17 19:51 35.436716 -119.054806 29 498ft 0kts
16-Jun-17 19:52 35.436716 -119.054806 29 498ft 0kts
16-Jun-17 19:53 35.436716 -119.054806 29 498ft 0kts
16-Jun-17 19:54 35.436716 -119.054806 29 498ft 0kts
16-Jun-17 19:55 35.436716 -119.054806 29 498ft 0kts
16-Jun-17 19:56 35.436716 -119.054806 29 498ft 0kts
16-Jun-17 19:57 35.436716 -119.054806 29 498ft 0kts
16-Jun-17 19:58 35.436716 -119.054806 29 498ft 0kts
16-Jun-17 19:59 35.436716 -119.054806 29 498ft 0kts
16-Jun-17 20:01 35.436716 -119.054806 29 498ft 0kts
16-Jun-17 20:02 35.436716 -119.054806 29 498ft 0kts
16-Jun-17 20:03 35.436716 -119.054806 29 498ft 0kts

Navigation Log

Ident Type
1. KSMX Airport
2. KBFL Airport